sensor_id;sensor_type;location;lat;lon;timestamp;P1;durP1;ratioP1;P2;durP2;ratioP2
10872;SDS011;34586;53.616;10.032;2023-12-04T00:01:47;29.27;;;18.63;;
10872;SDS011;34586;53.616;10.032;2023-12-04T00:04:13;31.80;;;18.70;;
10872;SDS011;34586;53.616;10.032;2023-12-04T00:06:40;30.03;;;18.40;;
10872;SDS011;34586;53.616;10.032;2023-12-04T00:09:06;27.50;;;17.07;;
10872;SDS011;34586;53.616;10.032;2023-12-04T00:11:32;28.30;;;18.23;;
10872;SDS011;34586;53.616;10.032;2023-12-04T00:13:57;26.30;;;17.60;;
10872;SDS011;34586;53.616;10.032;2023-12-04T00:16:23;28.97;;;17.60;;
10872;SDS011;34586;53.616;10.032;2023-12-04T00:18:49;30.57;;;19.37;;
10872;SDS011;34586;53.616;10.032;2023-12-04T00:21:14;27.87;;;17.33;;
10872;SDS011;34586;53.616;10.032;2023-12-04T00:23:40;26.93;;;18.03;;
10872;SDS011;34586;53.616;10.032;2023-12-04T00:26:06;29.73;;;17.93;;
10872;SDS011;34586;53.616;10.032;2023-12-04T00:28:31;29.37;;;17.60;;
10872;SDS011;34586;53.616;10.032;2023-12-04T00:30:57;24.87;;;15.77;;
10872;SDS011;34586;53.616;10.032;2023-12-04T00:33:23;27.40;;;16.73;;
10872;SDS011;34586;53.616;10.032;2023-12-04T00:35:48;28.33;;;17.70;;
10872;SDS011;34586;53.616;10.032;2023-12-04T00:38:14;27.30;;;17.03;;
10872;SDS011;34586;53.616;10.032;2023-12-04T00:40:39;28.87;;;18.83;;
10872;SDS011;34586;53.616;10.032;2023-12-04T00:43:05;26.87;;;17.63;;
10872;SDS011;34586;53.616;10.032;2023-12-04T00:45:30;28.57;;;17.70;;
10872;SDS011;34586;53.616;10.032;2023-12-04T00:47:56;26.93;;;16.83;;
10872;SDS011;34586;53.616;10.032;2023-12-04T00:50:22;25.60;;;16.93;;
10872;SDS011;34586;53.616;10.032;2023-12-04T00:52:47;27.03;;;17.43;;
10872;SDS011;34586;53.616;10.032;2023-12-04T00:55:13;27.10;;;17.47;;
10872;SDS011;34586;53.616;10.032;2023-12-04T00:57:39;27.60;;;17.87;;
10872;SDS011;34586;53.616;10.032;2023-12-04T01:00:04;29.63;;;17.57;;
10872;SDS011;34586;53.616;10.032;2023-12-04T01:02:31;26.07;;;16.37;;
10872;SDS011;34586;53.616;10.032;2023-12-04T01:04:57;28.00;;;16.80;;
10872;SDS011;34586;53.616;10.032;2023-12-04T01:07:22;27.93;;;16.83;;
10872;SDS011;34586;53.616;10.032;2023-12-04T01:09:48;27.47;;;16.70;;
10872;SDS011;34586;53.616;10.032;2023-12-04T01:12:13;28.13;;;16.60;;
10872;SDS011;34586;53.616;10.032;2023-12-04T01:14:39;29.47;;;18.17;;
10872;SDS011;34586;53.616;10.032;2023-12-04T01:17:04;26.20;;;17.43;;
10872;SDS011;34586;53.616;10.032;2023-12-04T01:19:31;23.17;;;16.67;;
10872;SDS011;34586;53.616;10.032;2023-12-04T01:21:57;25.40;;;16.13;;
10872;SDS011;34586;53.616;10.032;2023-12-04T01:24:23;24.40;;;16.33;;
10872;SDS011;34586;53.616;10.032;2023-12-04T01:26:48;23.90;;;16.17;;
10872;SDS011;34586;53.616;10.032;2023-12-04T01:29:14;25.97;;;16.97;;
10872;SDS011;34586;53.616;10.032;2023-12-04T01:31:39;26.40;;;17.33;;
10872;SDS011;34586;53.616;10.032;2023-12-04T01:34:05;25.10;;;16.60;;
10872;SDS011;34586;53.616;10.032;2023-12-04T01:36:30;24.77;;;15.87;;
10872;SDS011;34586;53.616;10.032;2023-12-04T01:38:56;26.93;;;17.60;;
10872;SDS011;34586;53.616;10.032;2023-12-04T01:41:22;27.33;;;17.57;;
10872;SDS011;34586;53.616;10.032;2023-12-04T01:43:47;25.63;;;16.43;;
10872;SDS011;34586;53.616;10.032;2023-12-04T01:46:13;25.60;;;16.07;;
10872;SDS011;34586;53.616;10.032;2023-12-04T01:48:41;24.73;;;16.33;;
10872;SDS011;34586;53.616;10.032;2023-12-04T01:51:09;27.47;;;16.97;;
10872;SDS011;34586;53.616;10.032;2023-12-04T01:53:37;24.70;;;16.47;;
10872;SDS011;34586;53.616;10.032;2023-12-04T01:56:04;26.83;;;17.43;;
10872;SDS011;34586;53.616;10.032;2023-12-04T01:58:31;26.93;;;16.60;;
10872;SDS011;34586;53.616;10.032;2023-12-04T02:00:58;26.33;;;16.27;;
10872;SDS011;34586;53.616;10.032;2023-12-04T02:03:24;25.50;;;15.57;;
10872;SDS011;34586;53.616;10.032;2023-12-04T02:05:51;25.87;;;16.77;;
10872;SDS011;34586;53.616;10.032;2023-12-04T02:08:17;25.37;;;16.13;;
10872;SDS011;34586;53.616;10.032;2023-12-04T02:10:43;24.43;;;15.73;;
10872;SDS011;34586;53.616;10.032;2023-12-04T02:13:09;24.07;;;15.90;;
10872;SDS011;34586;53.616;10.032;2023-12-04T02:15:35;26.40;;;16.93;;
10872;SDS011;34586;53.616;10.032;2023-12-04T02:18:02;22.57;;;14.53;;
10872;SDS011;34586;53.616;10.032;2023-12-04T02:20:34;26.20;;;16.20;;
10872;SDS011;34586;53.616;10.032;2023-12-04T02:23:00;26.27;;;16.20;;
10872;SDS011;34586;53.616;10.032;2023-12-04T02:25:26;25.53;;;15.77;;
10872;SDS011;34586;53.616;10.032;2023-12-04T02:27:53;25.27;;;16.00;;
10872;SDS011;34586;53.616;10.032;2023-12-04T02:30:21;24.83;;;16.23;;
10872;SDS011;34586;53.616;10.032;2023-12-04T02:32:49;23.80;;;15.87;;
10872;SDS011;34586;53.616;10.032;2023-12-04T02:35:23;23.70;;;15.63;;
10872;SDS011;34586;53.616;10.032;2023-12-04T02:37:52;24.03;;;16.53;;
10872;SDS011;34586;53.616;10.032;2023-12-04T02:40:18;24.20;;;15.37;;
10872;SDS011;34586;53.616;10.032;2023-12-04T02:42:44;27.20;;;16.77;;
10872;SDS011;34586;53.616;10.032;2023-12-04T02:45:10;27.70;;;16.60;;
10872;SDS011;34586;53.616;10.032;2023-12-04T02:47:36;26.40;;;15.43;;
10872;SDS011;34586;53.616;10.032;2023-12-04T02:50:02;24.77;;;15.07;;
10872;SDS011;34586;53.616;10.032;2023-12-04T02:52:27;21.83;;;15.20;;
10872;SDS011;34586;53.616;10.032;2023-12-04T02:54:53;22.80;;;15.00;;
10872;SDS011;34586;53.616;10.032;2023-12-04T02:57:19;25.30;;;15.03;;
10872;SDS011;34586;53.616;10.032;2023-12-04T02:59:45;24.70;;;14.70;;
10872;SDS011;34586;53.616;10.032;2023-12-04T03:02:10;25.63;;;16.10;;
10872;SDS011;34586;53.616;10.032;2023-12-04T03:04:36;24.60;;;16.73;;
10872;SDS011;34586;53.616;10.032;2023-12-04T03:07:02;23.97;;;15.37;;
10872;SDS011;34586;53.616;10.032;2023-12-04T03:09:30;23.83;;;14.97;;
10872;SDS011;34586;53.616;10.032;2023-12-04T03:11:56;25.33;;;15.80;;
10872;SDS011;34586;53.616;10.032;2023-12-04T03:14:21;27.50;;;16.03;;
10872;SDS011;34586;53.616;10.032;2023-12-04T03:16:47;22.80;;;15.03;;
10872;SDS011;34586;53.616;10.032;2023-12-04T03:19:13;25.23;;;14.90;;
10872;SDS011;34586;53.616;10.032;2023-12-04T03:21:38;24.63;;;15.87;;
10872;SDS011;34586;53.616;10.032;2023-12-04T03:24:04;24.50;;;14.87;;
10872;SDS011;34586;53.616;10.032;2023-12-04T03:26:29;27.43;;;16.37;;
10872;SDS011;34586;53.616;10.032;2023-12-04T03:28:55;22.63;;;15.20;;
10872;SDS011;34586;53.616;10.032;2023-12-04T03:31:21;23.77;;;15.03;;
10872;SDS011;34586;53.616;10.032;2023-12-04T03:33:48;26.27;;;15.37;;
10872;SDS011;34586;53.616;10.032;2023-12-04T03:36:13;23.93;;;15.57;;
10872;SDS011;34586;53.616;10.032;2023-12-04T03:38:39;22.97;;;14.83;;
10872;SDS011;34586;53.616;10.032;2023-12-04T03:41:05;22.10;;;14.30;;
10872;SDS011;34586;53.616;10.032;2023-12-04T03:43:37;24.77;;;15.23;;
10872;SDS011;34586;53.616;10.032;2023-12-04T03:46:03;24.90;;;15.87;;
10872;SDS011;34586;53.616;10.032;2023-12-04T03:48:29;24.63;;;15.37;;
10872;SDS011;34586;53.616;10.032;2023-12-04T03:50:54;23.10;;;14.60;;
10872;SDS011;34586;53.616;10.032;2023-12-04T03:53:20;22.83;;;14.67;;
10872;SDS011;34586;53.616;10.032;2023-12-04T03:55:45;21.53;;;14.17;;
10872;SDS011;34586;53.616;10.032;2023-12-04T03:58:11;19.40;;;13.53;;
10872;SDS011;34586;53.616;10.032;2023-12-04T04:00:37;22.20;;;13.93;;
10872;SDS011;34586;53.616;10.032;2023-12-04T04:03:06;22.53;;;14.60;;
10872;SDS011;34586;53.616;10.032;2023-12-04T04:05:33;23.43;;;14.80;;
10872;SDS011;34586;53.616;10.032;2023-12-04T04:07:59;24.63;;;15.17;;
10872;SDS011;34586;53.616;10.032;2023-12-04T04:10:25;24.47;;;14.40;;
10872;SDS011;34586;53.616;10.032;2023-12-04T04:12:51;22.57;;;14.13;;
10872;SDS011;34586;53.616;10.032;2023-12-04T04:15:16;22.43;;;14.63;;
10872;SDS011;34586;53.616;10.032;2023-12-04T04:17:42;22.13;;;13.70;;
10872;SDS011;34586;53.616;10.032;2023-12-04T04:20:07;22.13;;;14.03;;
10872;SDS011;34586;53.616;10.032;2023-12-04T04:22:33;22.00;;;14.57;;
10872;SDS011;34586;53.616;10.032;2023-12-04T04:25:04;20.03;;;13.77;;
10872;SDS011;34586;53.616;10.032;2023-12-04T04:27:31;23.00;;;13.80;;
10872;SDS011;34586;53.616;10.032;2023-12-04T04:29:56;22.23;;;14.47;;
10872;SDS011;34586;53.616;10.032;2023-12-04T04:32:22;21.37;;;14.07;;
10872;SDS011;34586;53.616;10.032;2023-12-04T04:34:47;21.27;;;13.80;;
10872;SDS011;34586;53.616;10.032;2023-12-04T04:37:13;19.30;;;13.43;;
10872;SDS011;34586;53.616;10.032;2023-12-04T04:39:41;24.07;;;14.23;;
10872;SDS011;34586;53.616;10.032;2023-12-04T04:42:07;20.70;;;13.60;;
10872;SDS011;34586;53.616;10.032;2023-12-04T04:44:32;19.60;;;12.93;;
10872;SDS011;34586;53.616;10.032;2023-12-04T04:46:58;18.97;;;12.80;;
10872;SDS011;34586;53.616;10.032;2023-12-04T04:49:24;18.73;;;12.10;;
10872;SDS011;34586;53.616;10.032;2023-12-04T04:51:49;20.70;;;13.80;;
10872;SDS011;34586;53.616;10.032;2023-12-04T04:54:15;17.70;;;12.63;;
10872;SDS011;34586;53.616;10.032;2023-12-04T04:56:40;17.23;;;12.00;;
10872;SDS011;34586;53.616;10.032;2023-12-04T04:59:06;20.50;;;13.50;;
10872;SDS011;34586;53.616;10.032;2023-12-04T05:01:32;20.47;;;12.93;;
10872;SDS011;34586;53.616;10.032;2023-12-04T05:03:57;21.60;;;14.10;;
10872;SDS011;34586;53.616;10.032;2023-12-04T05:06:23;20.87;;;12.67;;
10872;SDS011;34586;53.616;10.032;2023-12-04T05:08:49;18.40;;;12.83;;
10872;SDS011;34586;53.616;10.032;2023-12-04T05:11:19;20.53;;;13.37;;
10872;SDS011;34586;53.616;10.032;2023-12-04T05:13:45;18.07;;;12.63;;
10872;SDS011;34586;53.616;10.032;2023-12-04T05:16:10;19.23;;;13.00;;
10872;SDS011;34586;53.616;10.032;2023-12-04T05:18:37;18.53;;;12.37;;
10872;SDS011;34586;53.616;10.032;2023-12-04T05:21:03;19.93;;;12.80;;
10872;SDS011;34586;53.616;10.032;2023-12-04T05:23:36;18.77;;;12.23;;
10872;SDS011;34586;53.616;10.032;2023-12-04T05:26:03;17.57;;;11.93;;
10872;SDS011;34586;53.616;10.032;2023-12-04T05:28:29;18.13;;;12.20;;
10872;SDS011;34586;53.616;10.032;2023-12-04T05:30:55;16.67;;;11.83;;
10872;SDS011;34586;53.616;10.032;2023-12-04T05:33:20;16.90;;;12.00;;
10872;SDS011;34586;53.616;10.032;2023-12-04T05:35:47;16.70;;;11.87;;
10872;SDS011;34586;53.616;10.032;2023-12-04T05:38:13;18.87;;;12.30;;
10872;SDS011;34586;53.616;10.032;2023-12-04T05:40:39;17.33;;;11.23;;
10872;SDS011;34586;53.616;10.032;2023-12-04T05:43:04;16.07;;;11.63;;
10872;SDS011;34586;53.616;10.032;2023-12-04T05:45:30;17.50;;;11.90;;
10872;SDS011;34586;53.616;10.032;2023-12-04T05:47:56;18.00;;;12.23;;
10872;SDS011;34586;53.616;10.032;2023-12-04T05:50:22;18.37;;;12.03;;
10872;SDS011;34586;53.616;10.032;2023-12-04T05:52:47;16.07;;;11.77;;
10872;SDS011;34586;53.616;10.032;2023-12-04T05:55:13;18.70;;;13.27;;
10872;SDS011;34586;53.616;10.032;2023-12-04T05:57:39;19.53;;;12.43;;
10872;SDS011;34586;53.616;10.032;2023-12-04T06:00:05;19.30;;;13.33;;
10872;SDS011;34586;53.616;10.032;2023-12-04T06:02:37;17.57;;;11.43;;
10872;SDS011;34586;53.616;10.032;2023-12-04T06:05:03;21.33;;;12.53;;
10872;SDS011;34586;53.616;10.032;2023-12-04T06:07:29;19.20;;;12.27;;
10872;SDS011;34586;53.616;10.032;2023-12-04T06:09:55;17.67;;;11.73;;
10872;SDS011;34586;53.616;10.032;2023-12-04T06:12:21;18.23;;;12.23;;
10872;SDS011;34586;53.616;10.032;2023-12-04T06:14:46;18.37;;;12.43;;
10872;SDS011;34586;53.616;10.032;2023-12-04T06:17:12;16.67;;;11.30;;
10872;SDS011;34586;53.616;10.032;2023-12-04T06:19:37;19.10;;;12.43;;
10872;SDS011;34586;53.616;10.032;2023-12-04T06:22:03;17.10;;;11.67;;
10872;SDS011;34586;53.616;10.032;2023-12-04T06:24:29;20.67;;;12.77;;
10872;SDS011;34586;53.616;10.032;2023-12-04T06:26:55;19.20;;;12.83;;
10872;SDS011;34586;53.616;10.032;2023-12-04T06:29:25;20.50;;;12.93;;
10872;SDS011;34586;53.616;10.032;2023-12-04T06:31:51;18.33;;;12.53;;
10872;SDS011;34586;53.616;10.032;2023-12-04T06:34:17;20.77;;;13.27;;
10872;SDS011;34586;53.616;10.032;2023-12-04T06:36:43;22.50;;;14.17;;
10872;SDS011;34586;53.616;10.032;2023-12-04T06:39:11;18.50;;;12.80;;
10872;SDS011;34586;53.616;10.032;2023-12-04T06:41:40;20.80;;;13.73;;
10872;SDS011;34586;53.616;10.032;2023-12-04T06:44:07;19.87;;;13.03;;
10872;SDS011;34586;53.616;10.032;2023-12-04T06:46:34;22.97;;;14.77;;
10872;SDS011;34586;53.616;10.032;2023-12-04T06:49:04;23.00;;;14.43;;
10872;SDS011;34586;53.616;10.032;2023-12-04T06:51:31;21.60;;;14.27;;
10872;SDS011;34586;53.616;10.032;2023-12-04T06:53:57;25.10;;;15.77;;
10872;SDS011;34586;53.616;10.032;2023-12-04T06:56:23;25.47;;;15.40;;
10872;SDS011;34586;53.616;10.032;2023-12-04T06:58:48;23.97;;;14.87;;
10872;SDS011;34586;53.616;10.032;2023-12-04T07:01:14;24.10;;;15.97;;
10872;SDS011;34586;53.616;10.032;2023-12-04T07:03:39;25.03;;;15.77;;
10872;SDS011;34586;53.616;10.032;2023-12-04T07:06:05;24.30;;;14.93;;
10872;SDS011;34586;53.616;10.032;2023-12-04T07:08:31;24.27;;;16.17;;
10872;SDS011;34586;53.616;10.032;2023-12-04T07:10:57;24.83;;;15.40;;
10872;SDS011;34586;53.616;10.032;2023-12-04T07:13:22;25.53;;;15.77;;
10872;SDS011;34586;53.616;10.032;2023-12-04T07:15:48;25.93;;;16.43;;
10872;SDS011;34586;53.616;10.032;2023-12-04T07:18:13;27.57;;;17.10;;
10872;SDS011;34586;53.616;10.032;2023-12-04T07:20:39;26.27;;;16.67;;
10872;SDS011;34586;53.616;10.032;2023-12-04T07:23:05;24.73;;;15.73;;
10872;SDS011;34586;53.616;10.032;2023-12-04T07:25:30;27.73;;;16.27;;
10872;SDS011;34586;53.616;10.032;2023-12-04T07:27:56;28.93;;;17.83;;
10872;SDS011;34586;53.616;10.032;2023-12-04T07:30:23;27.97;;;16.83;;
10872;SDS011;34586;53.616;10.032;2023-12-04T07:32:49;25.90;;;16.57;;
10872;SDS011;34586;53.616;10.032;2023-12-04T07:35:15;27.43;;;16.87;;
10872;SDS011;34586;53.616;10.032;2023-12-04T07:37:43;28.20;;;17.57;;
10872;SDS011;34586;53.616;10.032;2023-12-04T07:40:08;27.50;;;16.43;;
10872;SDS011;34586;53.616;10.032;2023-12-04T07:42:35;27.37;;;16.87;;
10872;SDS011;34586;53.616;10.032;2023-12-04T07:45:01;27.73;;;16.80;;
10872;SDS011;34586;53.616;10.032;2023-12-04T07:47:27;28.97;;;18.53;;
10872;SDS011;34586;53.616;10.032;2023-12-04T07:49:52;27.20;;;17.00;;
10872;SDS011;34586;53.616;10.032;2023-12-04T07:52:18;26.30;;;15.67;;
10872;SDS011;34586;53.616;10.032;2023-12-04T07:54:43;29.20;;;17.60;;
10872;SDS011;34586;53.616;10.032;2023-12-04T07:57:09;26.00;;;15.87;;
10872;SDS011;34586;53.616;10.032;2023-12-04T07:59:35;26.33;;;16.27;;
10872;SDS011;34586;53.616;10.032;2023-12-04T08:02:00;28.10;;;16.23;;
10872;SDS011;34586;53.616;10.032;2023-12-04T08:04:26;28.30;;;17.03;;
10872;SDS011;34586;53.616;10.032;2023-12-04T08:06:52;25.20;;;15.70;;
10872;SDS011;34586;53.616;10.032;2023-12-04T08:09:18;27.13;;;16.93;;
10872;SDS011;34586;53.616;10.032;2023-12-04T08:11:43;28.80;;;16.77;;
10872;SDS011;34586;53.616;10.032;2023-12-04T08:14:09;28.63;;;17.23;;
10872;SDS011;34586;53.616;10.032;2023-12-04T08:16:34;25.57;;;15.60;;
10872;SDS011;34586;53.616;10.032;2023-12-04T08:19:00;28.37;;;17.17;;
10872;SDS011;34586;53.616;10.032;2023-12-04T08:21:26;33.40;;;16.97;;
10872;SDS011;34586;53.616;10.032;2023-12-04T08:23:51;26.77;;;16.10;;
10872;SDS011;34586;53.616;10.032;2023-12-04T08:26:24;28.63;;;16.73;;
10872;SDS011;34586;53.616;10.032;2023-12-04T08:28:50;25.47;;;15.90;;
10872;SDS011;34586;53.616;10.032;2023-12-04T08:31:16;25.87;;;17.13;;
10872;SDS011;34586;53.616;10.032;2023-12-04T08:33:42;26.50;;;15.90;;
10872;SDS011;34586;53.616;10.032;2023-12-04T08:36:08;25.13;;;16.20;;
10872;SDS011;34586;53.616;10.032;2023-12-04T08:38:35;24.90;;;16.17;;
10872;SDS011;34586;53.616;10.032;2023-12-04T08:41:01;26.70;;;16.87;;
10872;SDS011;34586;53.616;10.032;2023-12-04T08:43:27;25.20;;;16.27;;
10872;SDS011;34586;53.616;10.032;2023-12-04T08:45:53;26.60;;;16.57;;
10872;SDS011;34586;53.616;10.032;2023-12-04T08:48:19;26.60;;;16.87;;
10872;SDS011;34586;53.616;10.032;2023-12-04T08:50:45;24.00;;;16.97;;
10872;SDS011;34586;53.616;10.032;2023-12-04T08:53:10;31.60;;;17.97;;
10872;SDS011;34586;53.616;10.032;2023-12-04T08:55:37;30.33;;;16.87;;
10872;SDS011;34586;53.616;10.032;2023-12-04T08:58:02;27.00;;;16.30;;
10872;SDS011;34586;53.616;10.032;2023-12-04T09:00:28;26.83;;;16.40;;
10872;SDS011;34586;53.616;10.032;2023-12-04T09:02:54;27.77;;;16.57;;
10872;SDS011;34586;53.616;10.032;2023-12-04T09:05:20;26.93;;;16.37;;
10872;SDS011;34586;53.616;10.032;2023-12-04T09:07:46;25.37;;;16.87;;
10872;SDS011;34586;53.616;10.032;2023-12-04T09:10:11;27.10;;;16.70;;
10872;SDS011;34586;53.616;10.032;2023-12-04T09:12:37;25.53;;;16.27;;
10872;SDS011;34586;53.616;10.032;2023-12-04T09:15:04;21.77;;;14.53;;
10872;SDS011;34586;53.616;10.032;2023-12-04T09:17:30;23.83;;;15.73;;
10872;SDS011;34586;53.616;10.032;2023-12-04T09:19:56;22.50;;;14.70;;
10872;SDS011;34586;53.616;10.032;2023-12-04T09:22:22;26.47;;;17.63;;
10872;SDS011;34586;53.616;10.032;2023-12-04T09:24:47;33.80;;;22.13;;
10872;SDS011;34586;53.616;10.032;2023-12-04T09:27:13;23.97;;;15.20;;
10872;SDS011;34586;53.616;10.032;2023-12-04T09:29:39;28.47;;;15.97;;
10872;SDS011;34586;53.616;10.032;2023-12-04T09:32:05;23.33;;;15.37;;
10872;SDS011;34586;53.616;10.032;2023-12-04T09:34:31;22.90;;;15.97;;
10872;SDS011;34586;53.616;10.032;2023-12-04T09:36:57;25.40;;;15.67;;
10872;SDS011;34586;53.616;10.032;2023-12-04T09:39:22;23.40;;;15.90;;
10872;SDS011;34586;53.616;10.032;2023-12-04T09:41:48;20.47;;;14.67;;
10872;SDS011;34586;53.616;10.032;2023-12-04T09:44:15;20.73;;;14.77;;
10872;SDS011;34586;53.616;10.032;2023-12-04T09:46:42;21.27;;;14.53;;
10872;SDS011;34586;53.616;10.032;2023-12-04T09:49:08;25.97;;;15.60;;
10872;SDS011;34586;53.616;10.032;2023-12-04T09:51:35;19.30;;;14.07;;
10872;SDS011;34586;53.616;10.032;2023-12-04T09:54:02;20.47;;;13.77;;
10872;SDS011;34586;53.616;10.032;2023-12-04T09:56:29;22.33;;;14.17;;
10872;SDS011;34586;53.616;10.032;2023-12-04T09:58:58;19.10;;;13.60;;
10872;SDS011;34586;53.616;10.032;2023-12-04T10:01:25;20.03;;;14.20;;
10872;SDS011;34586;53.616;10.032;2023-12-04T10:03:53;21.07;;;14.37;;
10872;SDS011;34586;53.616;10.032;2023-12-04T10:06:22;22.40;;;15.07;;
10872;SDS011;34586;53.616;10.032;2023-12-04T10:08:51;20.63;;;14.20;;
10872;SDS011;34586;53.616;10.032;2023-12-04T10:11:17;21.60;;;14.77;;
10872;SDS011;34586;53.616;10.032;2023-12-04T10:13:42;19.47;;;13.57;;
10872;SDS011;34586;53.616;10.032;2023-12-04T10:16:08;20.00;;;14.13;;
10872;SDS011;34586;53.616;10.032;2023-12-04T10:18:34;23.10;;;14.37;;
10872;SDS011;34586;53.616;10.032;2023-12-04T10:20:59;20.43;;;13.53;;
10872;SDS011;34586;53.616;10.032;2023-12-04T10:23:37;22.50;;;14.87;;
10872;SDS011;34586;53.616;10.032;2023-12-04T10:26:04;20.53;;;14.37;;
10872;SDS011;34586;53.616;10.032;2023-12-04T10:28:32;19.60;;;14.00;;
10872;SDS011;34586;53.616;10.032;2023-12-04T10:30:57;18.63;;;12.93;;
10872;SDS011;34586;53.616;10.032;2023-12-04T10:33:24;18.73;;;12.73;;
10872;SDS011;34586;53.616;10.032;2023-12-04T10:35:53;17.50;;;13.00;;
10872;SDS011;34586;53.616;10.032;2023-12-04T10:38:20;19.53;;;13.20;;
10872;SDS011;34586;53.616;10.032;2023-12-04T10:40:46;21.97;;;15.23;;
10872;SDS011;34586;53.616;10.032;2023-12-04T10:43:14;18.87;;;13.87;;
10872;SDS011;34586;53.616;10.032;2023-12-04T10:45:42;20.80;;;13.00;;
10872;SDS011;34586;53.616;10.032;2023-12-04T10:48:10;17.87;;;13.33;;
10872;SDS011;34586;53.616;10.032;2023-12-04T10:50:40;23.13;;;14.20;;
10872;SDS011;34586;53.616;10.032;2023-12-04T10:53:11;19.57;;;14.00;;
10872;SDS011;34586;53.616;10.032;2023-12-04T10:55:39;20.20;;;13.43;;
10872;SDS011;34586;53.616;10.032;2023-12-04T10:58:07;21.37;;;14.03;;
10872;SDS011;34586;53.616;10.032;2023-12-04T11:00:36;18.47;;;13.30;;
10872;SDS011;34586;53.616;10.032;2023-12-04T11:03:14;24.13;;;15.87;;
10872;SDS011;34586;53.616;10.032;2023-12-04T11:05:55;19.13;;;13.77;;
10872;SDS011;34586;53.616;10.032;2023-12-04T11:08:24;19.17;;;12.97;;
10872;SDS011;34586;53.616;10.032;2023-12-04T11:13:22;18.90;;;14.27;;
10872;SDS011;34586;53.616;10.032;2023-12-04T11:15:53;19.30;;;13.40;;
10872;SDS011;34586;53.616;10.032;2023-12-04T11:18:31;18.17;;;13.03;;
10872;SDS011;34586;53.616;10.032;2023-12-04T11:21:08;19.87;;;13.50;;
10872;SDS011;34586;53.616;10.032;2023-12-04T11:23:35;19.33;;;14.03;;
10872;SDS011;34586;53.616;10.032;2023-12-04T11:26:02;21.07;;;13.87;;
10872;SDS011;34586;53.616;10.032;2023-12-04T11:28:30;21.17;;;14.80;;
10872;SDS011;34586;53.616;10.032;2023-12-04T11:30:58;18.50;;;13.67;;
10872;SDS011;34586;53.616;10.032;2023-12-04T11:33:26;20.33;;;14.60;;
10872;SDS011;34586;53.616;10.032;2023-12-04T11:35:51;18.43;;;12.80;;
10872;SDS011;34586;53.616;10.032;2023-12-04T11:38:17;19.67;;;12.87;;
10872;SDS011;34586;53.616;10.032;2023-12-04T11:40:43;18.83;;;13.83;;
10872;SDS011;34586;53.616;10.032;2023-12-04T11:43:26;20.10;;;13.07;;
10872;SDS011;34586;53.616;10.032;2023-12-04T11:45:53;17.83;;;12.60;;
10872;SDS011;34586;53.616;10.032;2023-12-04T11:48:32;20.23;;;13.87;;
10872;SDS011;34586;53.616;10.032;2023-12-04T11:50:58;19.73;;;13.20;;
10872;SDS011;34586;53.616;10.032;2023-12-04T11:53:25;17.30;;;12.77;;
10872;SDS011;34586;53.616;10.032;2023-12-04T11:55:52;19.10;;;12.87;;
10872;SDS011;34586;53.616;10.032;2023-12-04T11:58:21;17.07;;;12.73;;
10872;SDS011;34586;53.616;10.032;2023-12-04T12:00:47;16.57;;;12.57;;
10872;SDS011;34586;53.616;10.032;2023-12-04T12:03:14;17.53;;;13.40;;
10872;SDS011;34586;53.616;10.032;2023-12-04T12:05:40;17.07;;;12.30;;
10872;SDS011;34586;53.616;10.032;2023-12-04T12:08:07;18.57;;;13.20;;
10872;SDS011;34586;53.616;10.032;2023-12-04T12:10:33;17.50;;;12.90;;
10872;SDS011;34586;53.616;10.032;2023-12-04T12:12:59;18.73;;;12.17;;
10872;SDS011;34586;53.616;10.032;2023-12-04T12:15:26;18.17;;;13.37;;
10872;SDS011;34586;53.616;10.032;2023-12-04T12:17:52;18.03;;;12.80;;
10872;SDS011;34586;53.616;10.032;2023-12-04T12:20:18;20.23;;;13.93;;
10872;SDS011;34586;53.616;10.032;2023-12-04T12:22:45;18.10;;;13.13;;
10872;SDS011;34586;53.616;10.032;2023-12-04T12:25:13;17.93;;;12.27;;
10872;SDS011;34586;53.616;10.032;2023-12-04T12:27:39;16.63;;;12.73;;
10872;SDS011;34586;53.616;10.032;2023-12-04T12:30:05;17.70;;;12.63;;
10872;SDS011;34586;53.616;10.032;2023-12-04T12:32:31;18.20;;;13.40;;
10872;SDS011;34586;53.616;10.032;2023-12-04T12:34:58;19.27;;;13.97;;
10872;SDS011;34586;53.616;10.032;2023-12-04T12:37:24;19.10;;;13.20;;
10872;SDS011;34586;53.616;10.032;2023-12-04T12:39:49;18.07;;;12.97;;
10872;SDS011;34586;53.616;10.032;2023-12-04T12:42:23;19.77;;;13.73;;
10872;SDS011;34586;53.616;10.032;2023-12-04T12:44:53;17.97;;;12.40;;
10872;SDS011;34586;53.616;10.032;2023-12-04T12:47:20;21.23;;;14.27;;
10872;SDS011;34586;53.616;10.032;2023-12-04T12:49:46;19.50;;;12.77;;
10872;SDS011;34586;53.616;10.032;2023-12-04T12:52:12;17.40;;;13.10;;
10872;SDS011;34586;53.616;10.032;2023-12-04T12:54:38;17.83;;;12.90;;
10872;SDS011;34586;53.616;10.032;2023-12-04T12:57:07;16.23;;;11.67;;
10872;SDS011;34586;53.616;10.032;2023-12-04T12:59:33;17.47;;;12.87;;
10872;SDS011;34586;53.616;10.032;2023-12-04T13:02:00;18.27;;;12.73;;
10872;SDS011;34586;53.616;10.032;2023-12-04T13:04:26;18.53;;;13.33;;
10872;SDS011;34586;53.616;10.032;2023-12-04T13:06:58;20.10;;;13.10;;
10872;SDS011;34586;53.616;10.032;2023-12-04T13:09:24;19.27;;;13.70;;
10872;SDS011;34586;53.616;10.032;2023-12-04T13:11:49;18.60;;;12.97;;
10872;SDS011;34586;53.616;10.032;2023-12-04T13:14:16;18.40;;;12.97;;
10872;SDS011;34586;53.616;10.032;2023-12-04T13:16:42;19.70;;;14.67;;
10872;SDS011;34586;53.616;10.032;2023-12-04T13:19:08;19.73;;;14.50;;
10872;SDS011;34586;53.616;10.032;2023-12-04T13:21:33;17.93;;;13.43;;
10872;SDS011;34586;53.616;10.032;2023-12-04T13:23:59;19.77;;;14.03;;
10872;SDS011;34586;53.616;10.032;2023-12-04T13:26:24;18.30;;;13.30;;
10872;SDS011;34586;53.616;10.032;2023-12-04T13:28:50;21.60;;;14.90;;
10872;SDS011;34586;53.616;10.032;2023-12-04T13:31:16;18.83;;;14.30;;
10872;SDS011;34586;53.616;10.032;2023-12-04T13:33:42;18.47;;;13.40;;
10872;SDS011;34586;53.616;10.032;2023-12-04T13:36:08;19.47;;;14.00;;
10872;SDS011;34586;53.616;10.032;2023-12-04T13:38:34;19.87;;;13.73;;
10872;SDS011;34586;53.616;10.032;2023-12-04T13:41:00;19.60;;;14.10;;
10872;SDS011;34586;53.616;10.032;2023-12-04T13:43:43;18.77;;;13.33;;
10872;SDS011;34586;53.616;10.032;2023-12-04T13:46:15;16.30;;;12.60;;
10872;SDS011;34586;53.616;10.032;2023-12-04T13:48:40;19.63;;;14.10;;
10872;SDS011;34586;53.616;10.032;2023-12-04T13:51:08;21.87;;;14.40;;
10872;SDS011;34586;53.616;10.032;2023-12-04T13:53:34;19.83;;;14.50;;
10872;SDS011;34586;53.616;10.032;2023-12-04T13:56:03;19.43;;;13.20;;
10872;SDS011;34586;53.616;10.032;2023-12-04T13:58:48;22.17;;;13.83;;
10872;SDS011;34586;53.616;10.032;2023-12-04T14:01:20;20.47;;;13.63;;
10872;SDS011;34586;53.616;10.032;2023-12-04T14:03:53;19.90;;;14.67;;
10872;SDS011;34586;53.616;10.032;2023-12-04T14:06:19;18.43;;;13.80;;
10872;SDS011;34586;53.616;10.032;2023-12-04T14:08:45;19.73;;;13.70;;